Time;durP1;ratioP1;P1;durP2;ratioP2;P2;SDS_P1;SDS_P2;PMS_P1;PMS_P2;Temp;Humidity;BMP_temperature;BMP_pressure;BME280_temperature;BME280_humidity;BME280_pressure;Samples;Min_cycle;Max_cycle;Signal;HPM_P1;HPM_P2
2024/03/28 00:02:24;;;;;;;15.02;11.45;;;;;;;;;;5074324;28;20198;-72
2024/03/28 00:04:49;;;;;;;17.77;11.75;;;;;;;;;;5080360;28;20612;-72
2024/03/28 00:07:14;;;;;;;17.95;11.00;;;;;;;;;;5084173;28;20220;-72
2024/03/28 00:09:40;;;;;;;17.65;12.35;;;;;;;;;;5085341;28;20284;-72
2024/03/28 00:12:06;;;;;;;15.85;10.68;;;;;;;;;;5079361;28;20196;-72
2024/03/28 00:14:32;;;;;;;16.67;11.57;;;;;;;;;;5082755;28;20651;-72
2024/03/28 00:16:59;;;;;;;15.30;11.10;;;;;;;;;;5078007;28;20192;-73
2024/03/28 00:19:24;;;;;;;15.55;11.30;;;;;;;;;;5082518;28;20239;-73
2024/03/28 00:21:50;;;;;;;17.45;11.50;;;;;;;;;;5081085;28;20303;-73
2024/03/28 00:24:16;;;;;;;15.20;10.85;;;;;;;;;;5084175;28;20267;-73
2024/03/28 00:26:41;;;;;;;15.15;10.55;;;;;;;;;;5085327;28;20184;-73
2024/03/28 00:29:06;;;;;;;14.35;11.23;;;;;;;;;;5079001;28;20473;-73
2024/03/28 00:31:32;;;;;;;15.80;10.65;;;;;;;;;;5083922;28;20188;-73
2024/03/28 00:33:57;;;;;;;18.33;11.38;;;;;;;;;;5084362;28;20200;-73
2024/03/28 00:36:23;;;;;;;17.80;11.80;;;;;;;;;;5079502;28;20539;-73
2024/03/28 00:38:48;;;;;;;20.65;13.77;;;;;;;;;;5082006;28;20261;-73
2024/03/28 00:41:17;;;;;;;20.05;13.02;;;;;;;;;;5081087;28;20256;-72
2024/03/28 00:43:43;;;;;;;19.13;12.40;;;;;;;;;;5082629;28;20241;-72
2024/03/28 00:46:09;;;;;;;14.82;11.63;;;;;;;;;;5084068;28;20223;-72
2024/03/28 00:48:34;;;;;;;13.30;10.70;;;;;;;;;;5082331;28;20304;-72
2024/03/28 00:51:00;;;;;;;13.90;10.40;;;;;;;;;;5083260;28;20227;-72
2024/03/28 00:53:26;;;;;;;17.92;12.02;;;;;;;;;;5081902;28;20196;-72
2024/03/28 00:55:52;;;;;;;14.80;11.20;;;;;;;;;;5083775;28;20322;-73
2024/03/28 00:58:18;;;;;;;15.23;11.10;;;;;;;;;;5082988;28;20227;-72
2024/03/28 01:00:45;;;;;;;17.55;11.60;;;;;;;;;;5084672;28;20283;-72
2024/03/28 01:03:11;;;;;;;15.77;11.80;;;;;;;;;;5084031;28;20187;-72
2024/03/28 01:05:37;;;;;;;15.50;11.93;;;;;;;;;;5083065;28;20195;-72
2024/03/28 01:08:03;;;;;;;15.32;11.50;;;;;;;;;;5082549;28;20180;-72
2024/03/28 01:10:28;;;;;;;17.40;11.80;;;;;;;;;;5081993;28;20203;-72
2024/03/28 01:12:53;;;;;;;17.17;11.20;;;;;;;;;;5080097;28;20196;-72
2024/03/28 01:15:19;;;;;;;16.65;11.73;;;;;;;;;;5084366;28;20508;-73
2024/03/28 01:17:45;;;;;;;18.27;11.50;;;;;;;;;;5087060;28;20212;-73
2024/03/28 01:20:11;;;;;;;18.25;11.95;;;;;;;;;;5087669;28;20219;-72
2024/03/28 01:22:39;;;;;;;18.63;11.98;;;;;;;;;;5085643;28;20184;-72
2024/03/28 01:25:06;;;;;;;18.10;11.98;;;;;;;;;;5087603;28;20195;-72
2024/03/28 01:27:34;;;;;;;18.40;11.90;;;;;;;;;;5086346;28;20206;-72
2024/03/28 01:29:59;;;;;;;17.35;11.35;;;;;;;;;;5086815;28;20195;-72
2024/03/28 01:32:25;;;;;;;17.13;11.85;;;;;;;;;;5087252;28;20176;-72
2024/03/28 01:34:51;;;;;;;16.27;11.65;;;;;;;;;;5088481;28;20322;-72
2024/03/28 01:37:16;;;;;;;15.65;11.50;;;;;;;;;;5066658;28;20212;-72
2024/03/28 01:39:42;;;;;;;16.88;12.00;;;;;;;;;;5081457;28;20212;-72
2024/03/28 01:42:08;;;;;;;17.80;12.10;;;;;;;;;;5081760;28;20214;-72
2024/03/28 01:44:35;;;;;;;16.65;12.13;;;;;;;;;;5082073;28;20189;-72
2024/03/28 01:47:05;;;;;;;19.60;11.85;;;;;;;;;;5082298;28;20276;-73
2024/03/28 01:49:31;;;;;;;16.63;11.68;;;;;;;;;;5084385;28;20549;-71
2024/03/28 01:51:59;;;;;;;18.95;11.73;;;;;;;;;;5086085;28;20188;-72
2024/03/28 01:54:25;;;;;;;18.73;13.15;;;;;;;;;;5083933;28;20345;-72
2024/03/28 01:56:52;;;;;;;18.58;12.85;;;;;;;;;;5085036;28;20184;-72
2024/03/28 01:59:19;;;;;;;16.75;12.38;;;;;;;;;;5085214;28;20188;-73
2024/03/28 02:01:46;;;;;;;17.67;12.20;;;;;;;;;;5081433;28;20197;-73
2024/03/28 02:04:11;;;;;;;19.02;12.68;;;;;;;;;;5082669;28;20340;-72
2024/03/28 02:06:37;;;;;;;20.23;12.80;;;;;;;;;;5084331;28;20187;-72
2024/03/28 02:09:04;;;;;;;18.27;12.15;;;;;;;;;;5084767;28;20225;-72
2024/03/28 02:11:30;;;;;;;17.50;12.80;;;;;;;;;;5083365;28;20333;-73
2024/03/28 02:13:56;;;;;;;18.13;12.63;;;;;;;;;;5083330;28;20220;-72
2024/03/28 02:16:21;;;;;;;17.30;12.38;;;;;;;;;;5085371;28;20676;-73
2024/03/28 02:18:47;;;;;;;16.83;11.65;;;;;;;;;;5083755;28;20223;-73
2024/03/28 02:21:12;;;;;;;17.67;12.23;;;;;;;;;;5083890;28;20185;-74
2024/03/28 02:23:37;;;;;;;17.23;12.18;;;;;;;;;;5085015;28;20487;-72
2024/03/28 02:26:03;;;;;;;19.10;12.55;;;;;;;;;;5084073;28;20180;-72
2024/03/28 02:28:35;;;;;;;19.08;12.05;;;;;;;;;;5083749;28;20200;-72
2024/03/28 02:31:01;;;;;;;18.23;11.52;;;;;;;;;;5087964;28;20271;-73
2024/03/28 02:33:26;;;;;;;17.80;12.93;;;;;;;;;;5082367;28;20275;-73
2024/03/28 02:35:52;;;;;;;20.70;13.10;;;;;;;;;;5083732;28;20219;-73
2024/03/28 02:38:18;;;;;;;17.65;12.15;;;;;;;;;;5083230;28;20674;-73
2024/03/28 02:40:43;;;;;;;16.90;12.50;;;;;;;;;;5083813;28;20184;-73
2024/03/28 02:43:09;;;;;;;17.15;12.27;;;;;;;;;;5085118;28;20733;-73
2024/03/28 02:45:34;;;;;;;15.75;12.00;;;;;;;;;;5085418;28;20196;-73
2024/03/28 02:48:00;;;;;;;15.43;12.02;;;;;;;;;;5082637;28;20610;-73
2024/03/28 02:50:25;;;;;;;19.33;11.95;;;;;;;;;;5084627;28;20184;-73
2024/03/28 02:52:50;;;;;;;18.58;11.85;;;;;;;;;;5085307;28;20184;-73
2024/03/28 02:55:16;;;;;;;21.98;13.25;;;;;;;;;;5059840;28;20184;-73
2024/03/28 02:57:41;;;;;;;16.90;12.00;;;;;;;;;;5083377;28;20208;-73
2024/03/28 03:00:08;;;;;;;15.52;11.82;;;;;;;;;;5082987;28;20651;-73
2024/03/28 03:02:34;;;;;;;18.17;12.07;;;;;;;;;;5083461;28;20242;-73
2024/03/28 03:04:59;;;;;;;16.43;11.73;;;;;;;;;;5081309;28;20286;-73
2024/03/28 03:07:25;;;;;;;15.80;11.85;;;;;;;;;;5085329;28;20216;-73
2024/03/28 03:09:50;;;;;;;17.58;12.50;;;;;;;;;;5084208;28;20413;-73
2024/03/28 03:12:15;;;;;;;16.40;11.80;;;;;;;;;;5085500;28;20657;-73
2024/03/28 03:14:41;;;;;;;18.17;11.77;;;;;;;;;;5081952;28;20241;-73
2024/03/28 03:17:06;;;;;;;17.67;11.65;;;;;;;;;;5085540;28;20188;-73
2024/03/28 03:19:32;;;;;;;17.63;12.13;;;;;;;;;;5083449;28;20743;-73
2024/03/28 03:21:57;;;;;;;15.23;11.65;;;;;;;;;;5084945;28;20285;-73
2024/03/28 03:24:23;;;;;;;18.02;12.20;;;;;;;;;;5082555;28;20204;-73
2024/03/28 03:26:52;;;;;;;17.48;11.43;;;;;;;;;;5066261;28;20196;-73
2024/03/28 03:34:47;;;;;;;21.63;11.07;;;;;;;;;;5081901;28;20218;-73
2024/03/28 03:37:19;;;;;;;17.00;11.30;;;;;;;;;;5082644;28;20224;-73
2024/03/28 03:39:45;;;;;;;14.82;11.40;;;;;;;;;;5083682;28;20180;-73
2024/03/28 03:42:11;;;;;;;17.58;11.35;;;;;;;;;;5084693;28;20184;-73
2024/03/28 03:44:37;;;;;;;16.63;10.77;;;;;;;;;;5082976;28;20188;-73
2024/03/28 03:47:03;;;;;;;14.77;10.75;;;;;;;;;;5083943;28;20192;-73
2024/03/28 03:49:28;;;;;;;16.02;10.57;;;;;;;;;;5082037;28;20257;-72
2024/03/28 03:51:53;;;;;;;23.02;11.18;;;;;;;;;;5084915;28;20274;-72
2024/03/28 03:54:19;;;;;;;13.95;10.32;;;;;;;;;;5084083;28;20195;-72
2024/03/28 03:56:45;;;;;;;13.65;9.55;;;;;;;;;;5083605;28;20200;-72
2024/03/28 03:59:10;;;;;;;14.65;10.35;;;;;;;;;;5082896;28;20572;-72
2024/03/28 04:01:35;;;;;;;17.00;10.43;;;;;;;;;;5081215;28;20237;-72
2024/03/28 04:04:02;;;;;;;15.38;9.60;;;;;;;;;;5083833;28;20210;-72
2024/03/28 04:06:28;;;;;;;13.20;9.70;;;;;;;;;;5081622;28;20196;-72
2024/03/28 04:08:53;;;;;;;14.98;9.85;;;;;;;;;;5083779;28;20241;-72
2024/03/28 04:11:19;;;;;;;14.00;9.82;;;;;;;;;;5082917;28;20192;-72
2024/03/28 04:13:44;;;;;;;13.70;9.30;;;;;;;;;;5084501;28;20188;-72
2024/03/28 04:16:10;;;;;;;14.77;9.20;;;;;;;;;;5079011;28;20619;-72
2024/03/28 04:18:35;;;;;;;13.70;9.63;;;;;;;;;;5083986;28;20224;-72
2024/03/28 04:21:01;;;;;;;13.68;9.13;;;;;;;;;;5082654;28;20189;-72
2024/03/28 04:23:27;;;;;;;15.18;9.55;;;;;;;;;;5082338;28;20447;-72
2024/03/28 04:25:57;;;;;;;12.52;8.55;;;;;;;;;;5083916;28;20180;-72
2024/03/28 04:28:23;;;;;;;11.70;8.85;;;;;;;;;;5081966;28;20540;-72
2024/03/28 04:30:49;;;;;;;11.60;8.27;;;;;;;;;;5084515;28;20554;-72
2024/03/28 04:33:14;;;;;;;12.77;8.50;;;;;;;;;;5081026;28;20268;-72
2024/03/28 04:35:41;;;;;;;11.63;8.27;;;;;;;;;;5078324;28;20361;-72
2024/03/28 04:38:06;;;;;;;14.65;8.40;;;;;;;;;;5079647;28;20235;-72
2024/03/28 04:40:32;;;;;;;11.77;8.30;;;;;;;;;;5081703;28;20188;-72
2024/03/28 04:42:57;;;;;;;13.73;8.30;;;;;;;;;;5082236;28;20207;-72
2024/03/28 04:45:23;;;;;;;11.32;8.02;;;;;;;;;;5080179;28;20207;-72
2024/03/28 04:47:49;;;;;;;13.25;8.45;;;;;;;;;;5081014;28;20214;-72
2024/03/28 04:50:16;;;;;;;12.18;8.32;;;;;;;;;;5081643;28;20630;-72
2024/03/28 04:52:42;;;;;;;11.75;8.82;;;;;;;;;;5081928;28;21039;-72
2024/03/28 04:55:07;;;;;;;13.88;8.70;;;;;;;;;;5082344;28;20233;-71
2024/03/28 04:57:34;;;;;;;12.27;9.07;;;;;;;;;;5078162;28;20564;-72
2024/03/28 05:00:00;;;;;;;14.63;8.98;;;;;;;;;;5084130;28;20216;-72
2024/03/28 05:02:25;;;;;;;12.18;8.77;;;;;;;;;;5082683;28;20679;-72
2024/03/28 05:04:51;;;;;;;13.02;9.15;;;;;;;;;;5081070;28;20192;-72
2024/03/28 05:07:16;;;;;;;16.33;10.18;;;;;;;;;;5083074;28;20203;-72
2024/03/28 05:09:45;;;;;;;16.75;9.85;;;;;;;;;;5081725;28;20176;-71
2024/03/28 05:12:11;;;;;;;13.75;9.95;;;;;;;;;;5080627;28;20198;-71
2024/03/28 05:14:36;;;;;;;14.25;10.13;;;;;;;;;;5079458;28;20666;-71
2024/03/28 05:17:03;;;;;;;18.43;11.20;;;;;;;;;;5083221;28;20207;-71
2024/03/28 05:19:28;;;;;;;14.80;10.47;;;;;;;;;;5080579;28;20751;-72
2024/03/28 05:21:54;;;;;;;18.60;12.23;;;;;;;;;;5082348;28;20184;-72
2024/03/28 05:24:19;;;;;;;15.67;10.93;;;;;;;;;;5082559;28;20534;-73
2024/03/28 05:26:44;;;;;;;13.63;10.40;;;;;;;;;;5082234;28;20198;-73
2024/03/28 05:29:10;;;;;;;16.10;11.00;;;;;;;;;;5080286;28;20182;-73
2024/03/28 05:31:35;;;;;;;19.67;11.03;;;;;;;;;;5081634;28;20241;-73
2024/03/28 05:34:01;;;;;;;14.33;10.87;;;;;;;;;;5083136;28;20199;-73
2024/03/28 05:36:26;;;;;;;19.77;11.47;;;;;;;;;;5083539;28;20200;-73
2024/03/28 05:38:52;;;;;;;16.60;11.13;;;;;;;;;;5082159;28;20607;-73
2024/03/28 05:41:17;;;;;;;17.53;11.73;;;;;;;;;;5083920;28;20192;-73
2024/03/28 05:43:43;;;;;;;17.07;10.47;;;;;;;;;;5081200;28;20176;-73
2024/03/28 05:46:09;;;;;;;15.53;10.37;;;;;;;;;;5082299;28;20173;-73
2024/03/28 05:48:34;;;;;;;17.40;10.67;;;;;;;;;;5080588;28;20655;-73
2024/03/28 05:50:59;;;;;;;15.57;10.93;;;;;;;;;;5085024;28;20210;-73
2024/03/28 05:53:25;;;;;;;16.27;11.13;;;;;;;;;;5081041;28;20189;-72
2024/03/28 05:55:50;;;;;;;16.93;10.83;;;;;;;;;;5085353;28;20185;-73
2024/03/28 05:58:16;;;;;;;14.50;9.53;;;;;;;;;;5082429;28;20279;-72
2024/03/28 06:00:41;;;;;;;14.07;10.73;;;;;;;;;;5078807;28;20206;-72
2024/03/28 06:03:06;;;;;;;12.93;10.17;;;;;;;;;;5086453;28;20196;-73
2024/03/28 06:05:32;;;;;;;13.80;10.17;;;;;;;;;;5087173;28;20199;-72
2024/03/28 06:07:58;;;;;;;13.70;10.07;;;;;;;;;;5091772;28;20266;-73
2024/03/28 06:10:24;;;;;;;13.37;9.87;;;;;;;;;;5071367;28;20547;-73
2024/03/28 06:12:49;;;;;;;13.38;9.77;;;;;;;;;;5077481;28;20177;-72
2024/03/28 06:15:14;;;;;;;15.52;10.10;;;;;;;;;;5087246;28;20191;-73
2024/03/28 06:17:40;;;;;;;16.23;9.40;;;;;;;;;;5082535;28;20196;-72
2024/03/28 06:20:07;;;;;;;15.32;10.13;;;;;;;;;;5082113;28;20428;-73
2024/03/28 06:22:33;;;;;;;14.27;9.68;;;;;;;;;;5076980;28;20184;-73
2024/03/28 06:24:58;;;;;;;13.18;9.50;;;;;;;;;;5083625;28;20189;-73
2024/03/28 06:27:25;;;;;;;10.02;8.80;;;;;;;;;;5089436;28;20195;-73
2024/03/28 06:29:50;;;;;;;13.43;8.73;;;;;;;;;;5074946;28;20177;-73
2024/03/28 06:32:24;;;;;;;14.18;8.93;;;;;;;;;;5085954;28;20188;-73
2024/03/28 06:34:54;;;;;;;12.95;9.23;;;;;;;;;;5084860;28;20233;-73
2024/03/28 06:37:20;;;;;;;10.93;7.87;;;;;;;;;;5082314;28;20232;-73
2024/03/28 06:39:46;;;;;;;13.95;9.10;;;;;;;;;;5074338;28;20208;-72
2024/03/28 06:42:12;;;;;;;11.18;8.40;;;;;;;;;;5088154;28;20180;-72
2024/03/28 06:44:39;;;;;;;12.35;8.63;;;;;;;;;;5077180;28;20685;-72
2024/03/28 06:47:04;;;;;;;12.30;8.70;;;;;;;;;;5077710;28;20180;-72
2024/03/28 06:49:30;;;;;;;10.73;8.50;;;;;;;;;;5088268;28;20207;-72
2024/03/28 06:51:56;;;;;;;10.95;8.38;;;;;;;;;;5085843;28;20559;-72
2024/03/28 06:54:21;;;;;;;11.45;8.13;;;;;;;;;;5090426;28;20195;-72
2024/03/28 06:56:47;;;;;;;11.07;8.35;;;;;;;;;;5076575;28;20233;-72
2024/03/28 06:59:13;;;;;;;10.73;8.02;;;;;;;;;;5074050;28;20269;-73
2024/03/28 07:01:40;;;;;;;12.55;8.15;;;;;;;;;;5069957;28;20581;-72
2024/03/28 07:04:07;;;;;;;9.38;7.50;;;;;;;;;;5064834;28;20211;-72
2024/03/28 07:06:32;;;;;;;11.10;8.18;;;;;;;;;;5074731;28;20564;-72
2024/03/28 07:08:58;;;;;;;10.40;8.10;;;;;;;;;;5084242;28;20184;-72
2024/03/28 07:11:25;;;;;;;9.98;7.68;;;;;;;;;;5084068;28;20192;-72
2024/03/28 07:13:51;;;;;;;11.00;7.43;;;;;;;;;;5084749;28;20199;-72
2024/03/28 07:16:16;;;;;;;9.93;7.18;;;;;;;;;;5065311;28;20181;-72
2024/03/28 07:18:42;;;;;;;11.70;8.13;;;;;;;;;;5082377;28;20338;-72
2024/03/28 07:21:07;;;;;;;11.95;7.60;;;;;;;;;;5082263;28;20200;-73
2024/03/28 07:23:33;;;;;;;9.57;7.47;;;;;;;;;;5108137;27;21679;-73
2024/03/28 07:25:58;;;;;;;10.23;7.10;;;;;;;;;;5080394;28;20632;-73
2024/03/28 07:28:23;;;;;;;11.77;6.57;;;;;;;;;;5079218;28;20192;-73
2024/03/28 07:30:49;;;;;;;7.75;6.40;;;;;;;;;;5084527;28;20199;-73
2024/03/28 07:33:14;;;;;;;8.40;6.25;;;;;;;;;;5085955;28;20210;-73
2024/03/28 07:35:40;;;;;;;9.25;5.97;;;;;;;;;;5083791;28;20190;-72
2024/03/28 07:38:05;;;;;;;7.85;5.85;;;;;;;;;;5083790;28;20246;-72
2024/03/28 07:40:31;;;;;;;8.02;5.63;;;;;;;;;;5082624;28;21852;-72
2024/03/28 07:42:56;;;;;;;6.50;5.13;;;;;;;;;;5084203;28;20613;-72
2024/03/28 07:45:22;;;;;;;7.40;4.85;;;;;;;;;;5082088;28;20206;-72
2024/03/28 07:47:47;;;;;;;6.60;4.30;;;;;;;;;;5080063;28;20553;-71
2024/03/28 07:50:13;;;;;;;5.35;4.72;;;;;;;;;;5082580;28;20184;-71
2024/03/28 07:52:39;;;;;;;5.68;3.97;;;;;;;;;;5082402;28;20196;-71
2024/03/28 07:55:05;;;;;;;5.22;4.05;;;;;;;;;;5081990;28;20316;-72
2024/03/28 07:57:30;;;;;;;4.32;3.83;;;;;;;;;;5083076;28;20716;-71
2024/03/28 07:59:56;;;;;;;7.68;3.80;;;;;;;;;;5082441;28;20224;-71
2024/03/28 08:02:24;;;;;;;5.88;3.80;;;;;;;;;;5076653;28;20193;-72
2024/03/28 08:04:50;;;;;;;7.25;3.15;;;;;;;;;;5083214;28;20192;-72
2024/03/28 08:07:16;;;;;;;6.18;3.28;;;;;;;;;;5085570;28;20240;-72
2024/03/28 08:09:42;;;;;;;4.07;3.30;;;;;;;;;;5084368;28;20331;-71
2024/03/28 08:12:08;;;;;;;4.10;3.60;;;;;;;;;;5082838;28;20190;-72
2024/03/28 08:14:35;;;;;;;5.07;3.45;;;;;;;;;;5083722;28;20597;-71
2024/03/28 08:17:00;;;;;;;4.07;3.30;;;;;;;;;;5083432;28;20282;-72
2024/03/28 08:19:26;;;;;;;4.30;2.72;;;;;;;;;;5084013;28;20812;-71
2024/03/28 08:21:52;;;;;;;3.55;3.00;;;;;;;;;;5080490;28;20551;-71
2024/03/28 08:24:22;;;;;;;3.45;2.60;;;;;;;;;;5082213;28;20195;-70
2024/03/28 08:26:49;;;;;;;5.30;2.58;;;;;;;;;;5080511;28;20202;-73
2024/03/28 08:29:15;;;;;;;5.80;2.70;;;;;;;;;;5082007;28;20184;-72
2024/03/28 08:31:41;;;;;;;4.07;2.60;;;;;;;;;;5084226;28;20203;-71
2024/03/28 08:34:07;;;;;;;3.90;2.78;;;;;;;;;;5080651;28;20215;-70
2024/03/28 08:36:33;;;;;;;3.50;2.75;;;;;;;;;;5080455;28;20288;-71
2024/03/28 08:38:58;;;;;;;3.35;2.53;;;;;;;;;;5082899;28;20227;-71
2024/03/28 08:41:24;;;;;;;5.53;2.88;;;;;;;;;;5083122;28;20192;-70
2024/03/28 08:43:50;;;;;;;3.97;2.63;;;;;;;;;;5079067;28;20196;-70
2024/03/28 08:46:17;;;;;;;4.97;3.08;;;;;;;;;;5079534;28;20187;-71
2024/03/28 08:48:46;;;;;;;5.72;2.83;;;;;;;;;;5078953;28;20245;-71
2024/03/28 08:51:12;;;;;;;8.30;3.25;;;;;;;;;;5082825;28;20176;-71
2024/03/28 08:53:37;;;;;;;3.45;2.60;;;;;;;;;;5082772;28;20184;-72
2024/03/28 08:56:04;;;;;;;4.45;3.10;;;;;;;;;;5082688;28;21050;-71
2024/03/28 08:58:29;;;;;;;5.72;2.92;;;;;;;;;;5082137;28;20216;-71
2024/03/28 09:00:55;;;;;;;3.70;2.70;;;;;;;;;;5082668;28;20184;-71
2024/03/28 09:03:21;;;;;;;3.13;2.40;;;;;;;;;;5073737;28;20196;-71
2024/03/28 09:05:48;;;;;;;5.85;3.72;;;;;;;;;;5080033;28;20238;-71
2024/03/28 09:08:15;;;;;;;4.28;3.13;;;;;;;;;;5080603;28;20283;-71
2024/03/28 09:10:43;;;;;;;4.43;2.40;;;;;;;;;;5081896;28;20223;-71
2024/03/28 09:13:09;;;;;;;3.80;2.58;;;;;;;;;;5083098;28;20206;-70
2024/03/28 09:15:37;;;;;;;3.38;2.47;;;;;;;;;;5081524;28;20271;-71
2024/03/28 09:18:03;;;;;;;4.25;2.78;;;;;;;;;;5080830;28;20662;-70
2024/03/28 09:20:28;;;;;;;2.83;2.40;;;;;;;;;;5081805;28;20286;-70
2024/03/28 09:22:54;;;;;;;5.40;2.30;;;;;;;;;;5081104;28;20577;-71
2024/03/28 09:25:20;;;;;;;2.90;1.95;;;;;;;;;;5082183;28;20583;-71
2024/03/28 09:27:45;;;;;;;3.28;2.25;;;;;;;;;;5063801;28;20185;-71
2024/03/28 09:30:14;;;;;;;2.65;1.98;;;;;;;;;;5080334;28;20624;-71
2024/03/28 09:32:39;;;;;;;3.67;2.00;;;;;;;;;;5081137;28;20220;-71
2024/03/28 09:35:08;;;;;;;3.70;1.80;;;;;;;;;;5071436;28;20300;-72
2024/03/28 09:37:34;;;;;;;3.92;1.73;;;;;;;;;;5079624;28;20653;-71
2024/03/28 09:39:59;;;;;;;3.38;1.48;;;;;;;;;;5080416;28;20677;-70
2024/03/28 09:42:26;;;;;;;2.30;1.50;;;;;;;;;;5085173;28;20202;-71
2024/03/28 09:44:52;;;;;;;2.25;1.63;;;;;;;;;;5081683;28;20192;-71
2024/03/28 09:47:19;;;;;;;2.40;1.25;;;;;;;;;;5081581;28;20192;-72
2024/03/28 09:49:45;;;;;;;1.65;1.38;;;;;;;;;;5082939;28;20680;-71
2024/03/28 09:52:13;;;;;;;3.63;1.60;;;;;;;;;;5082484;28;20233;-71
2024/03/28 09:54:46;;;;;;;3.15;1.88;;;;;;;;;;5085125;28;20237;-71
2024/03/28 09:57:11;;;;;;;3.22;2.45;;;;;;;;;;5079722;28;20184;-71
2024/03/28 09:59:37;;;;;;;3.47;2.25;;;;;;;;;;5085837;28;20563;-71
2024/03/28 10:02:13;;;;;;;3.20;1.95;;;;;;;;;;5086304;28;20682;-71
2024/03/28 10:04:43;;;;;;;2.22;1.95;;;;;;;;;;5084426;28;20200;-71
2024/03/28 10:07:10;;;;;;;2.70;1.88;;;;;;;;;;5085215;28;20203;-72
2024/03/28 10:09:36;;;;;;;2.80;1.90;;;;;;;;;;5082932;28;20558;-71
2024/03/28 10:12:20;;;;;;;3.50;2.03;;;;;;;;;;5085115;28;20203;-71
2024/03/28 10:14:55;;;;;;;3.60;2.03;;;;;;;;;;5084823;28;20260;-71
2024/03/28 10:17:21;;;;;;;4.70;2.17;;;;;;;;;;5084435;28;20663;-71
2024/03/28 10:20:07;;;;;;;3.03;2.28;;;;;;;;;;5085978;28;20219;-71
2024/03/28 10:22:41;;;;;;;2.80;2.33;;;;;;;;;;5086549;28;20344;-71
2024/03/28 10:25:17;;;;;;;3.28;2.58;;;;;;;;;;5081876;28;20184;-71
2024/03/28 10:27:42;;;;;;;4.15;2.90;;;;;;;;;;5084272;28;20266;-71
2024/03/28 10:30:11;;;;;;;3.45;2.90;;;;;;;;;;5083421;28;21748;-71
2024/03/28 10:32:37;;;;;;;2.58;2.38;;;;;;;;;;5084605;28;21340;-71
2024/03/28 10:35:03;;;;;;;3.65;2.35;;;;;;;;;;5084376;28;20615;-71
2024/03/28 10:37:29;;;;;;;3.53;2.40;;;;;;;;;;5084248;28;20314;-71
2024/03/28 10:39:55;;;;;;;2.47;2.25;;;;;;;;;;5082937;28;20219;-71
2024/03/28 10:42:20;;;;;;;3.17;2.47;;;;;;;;;;5084243;28;20195;-71
2024/03/28 10:44:46;;;;;;;2.25;1.73;;;;;;;;;;5086379;28;20543;-71
2024/03/28 10:47:18;;;;;;;3.00;1.67;;;;;;;;;;5084436;28;21781;-71
2024/03/28 10:49:56;;;;;;;2.35;1.58;;;;;;;;;;5083890;28;20180;-71
2024/03/28 10:52:25;;;;;;;3.22;1.70;;;;;;;;;;5083372;28;20213;-71
2024/03/28 10:55:08;;;;;;;1.90;1.40;;;;;;;;;;5084598;28;20192;-71
2024/03/28 10:57:37;;;;;;;1.95;1.60;;;;;;;;;;5084523;28;20192;-71
2024/03/28 11:00:03;;;;;;;2.53;1.65;;;;;;;;;;5085370;28;20213;-70
2024/03/28 11:02:30;;;;;;;2.05;1.50;;;;;;;;;;5085677;28;20195;-71
2024/03/28 11:04:58;;;;;;;2.55;1.70;;;;;;;;;;5081780;28;20192;-72
2024/03/28 11:07:25;;;;;;;1.80;1.60;;;;;;;;;;5085465;28;20789;-72
2024/03/28 11:09:54;;;;;;;2.03;1.83;;;;;;;;;;5082910;28;20698;-72
2024/03/28 11:12:20;;;;;;;2.35;1.98;;;;;;;;;;5084336;28;20184;-71
2024/03/28 11:15:00;;;;;;;2.83;1.90;;;;;;;;;;5083914;28;20357;-72
2024/03/28 11:17:26;;;;;;;2.95;1.90;;;;;;;;;;5077181;28;20203;-71
2024/03/28 11:20:18;;;;;;;3.83;1.80;;;;;;;;;;5084384;28;20216;-75
2024/03/28 11:22:44;;;;;;;1.88;1.70;;;;;;;;;;5081257;28;20224;-75
2024/03/28 11:25:26;;;;;;;2.70;1.70;;;;;;;;;;5081702;28;20219;-74
2024/03/28 11:28:12;;;;;;;3.13;1.45;;;;;;;;;;5083302;28;20189;-76
2024/03/28 11:30:58;;;;;;;1.50;1.40;;;;;;;;;;5083477;28;20194;-76
2024/03/28 11:33:30;;;;;;;2.33;1.23;;;;;;;;;;5086629;28;20225;-80
2024/03/28 11:36:04;;;;;;;0.93;0.90;;;;;;;;;;5087467;28;20180;-79
2024/03/28 11:38:30;;;;;;;3.80;1.40;;;;;;;;;;5085057;28;20224;-80
2024/03/28 11:40:57;;;;;;;1.75;1.10;;;;;;;;;;5087100;28;20195;-80
2024/03/28 11:43:23;;;;;;;1.42;0.93;;;;;;;;;;5085077;28;20264;-80
2024/03/28 11:45:57;;;;;;;3.88;1.10;;;;;;;;;;5087863;28;20554;-80
2024/03/28 11:48:27;;;;;;;1.38;1.10;;;;;;;;;;5086542;28;20190;-80
2024/03/28 11:50:54;;;;;;;1.08;0.98;;;;;;;;;;5088677;28;20191;-79
2024/03/28 11:53:20;;;;;;;2.65;1.23;;;;;;;;;;5088800;28;20196;-79
2024/03/28 11:55:48;;;;;;;2.90;1.20;;;;;;;;;;5087771;28;20188;-81
2024/03/28 11:58:23;;;;;;;1.17;1.08;;;;;;;;;;5085502;28;20223;-79
2024/03/28 12:00:49;;;;;;;1.73;1.00;;;;;;;;;;5086118;28;20375;-79
2024/03/28 12:03:15;;;;;;;2.22;1.02;;;;;;;;;;5085712;28;20673;-78
2024/03/28 12:05:41;;;;;;;3.33;0.82;;;;;;;;;;5064624;28;20278;-78
2024/03/28 12:08:07;;;;;;;5.18;1.20;;;;;;;;;;5067132;28;20173;-76
2024/03/28 12:10:34;;;;;;;1.60;0.90;;;;;;;;;;5079489;28;20180;-77
2024/03/28 12:13:06;;;;;;;1.00;0.90;;;;;;;;;;5083281;28;20615;-76
2024/03/28 12:15:31;;;;;;;2.67;1.20;;;;;;;;;;5084788;28;20188;-76
2024/03/28 12:17:57;;;;;;;1.08;0.95;;;;;;;;;;5082934;28;20184;-75
2024/03/28 12:20:23;;;;;;;2.58;1.70;;;;;;;;;;5080477;28;20222;-74
2024/03/28 12:22:57;;;;;;;1.48;1.20;;;;;;;;;;5083430;28;20647;-75
2024/03/28 12:25:24;;;;;;;3.55;1.60;;;;;;;;;;5084528;28;20195;-75
2024/03/28 12:28:01;;;;;;;5.97;1.85;;;;;;;;;;5082489;28;20192;-74
2024/03/28 12:30:28;;;;;;;2.53;1.50;;;;;;;;;;5081914;28;20283;-74
2024/03/28 12:33:01;;;;;;;3.22;1.60;;;;;;;;;;5081926;28;20210;-74
2024/03/28 12:35:28;;;;;;;3.80;1.48;;;;;;;;;;5083285;28;20233;-74
2024/03/28 12:37:53;;;;;;;2.75;1.60;;;;;;;;;;5082699;28;20247;-73
2024/03/28 12:40:20;;;;;;;2.42;1.88;;;;;;;;;;5083125;28;20218;-73
2024/03/28 12:42:46;;;;;;;3.42;1.80;;;;;;;;;;5081960;28;20230;-73
2024/03/28 12:45:22;;;;;;;3.35;1.90;;;;;;;;;;5079696;28;20192;-73
2024/03/28 12:47:49;;;;;;;3.28;2.03;;;;;;;;;;5079262;28;20654;-73
2024/03/28 12:50:17;;;;;;;3.15;2.03;;;;;;;;;;5078017;28;20188;-73
2024/03/28 12:52:53;;;;;;;4.45;2.10;;;;;;;;;;5080955;28;20397;-73
2024/03/28 12:55:20;;;;;;;4.47;2.15;;;;;;;;;;5080916;28;20558;-73
2024/03/28 12:57:46;;;;;;;3.40;2.30;;;;;;;;;;5083777;28;20184;-73
2024/03/28 13:00:13;;;;;;;3.92;2.30;;;;;;;;;;5083594;28;20200;-72
2024/03/28 13:02:38;;;;;;;3.85;2.42;;;;;;;;;;5083595;28;20184;-72
2024/03/28 13:05:04;;;;;;;4.70;2.25;;;;;;;;;;5080230;28;20274;-72
2024/03/28 13:07:33;;;;;;;3.67;2.60;;;;;;;;;;5081175;28;20214;-72
2024/03/28 13:09:59;;;;;;;5.25;2.38;;;;;;;;;;5083355;28;20604;-71
2024/03/28 13:12:25;;;;;;;7.45;2.70;;;;;;;;;;5085777;28;20207;-72
2024/03/28 13:14:50;;;;;;;4.30;2.88;;;;;;;;;;5087785;28;20185;-72
2024/03/28 13:17:16;;;;;;;5.20;2.70;;;;;;;;;;5084618;28;20218;-71
2024/03/28 13:19:42;;;;;;;5.82;3.13;;;;;;;;;;5088648;28;20208;-72
2024/03/28 13:22:08;;;;;;;6.93;2.85;;;;;;;;;;5084242;28;21506;-72
2024/03/28 13:24:35;;;;;;;6.35;2.70;;;;;;;;;;5087043;28;20200;-72
2024/03/28 13:27:01;;;;;;;7.78;2.88;;;;;;;;;;5085575;28;20707;-73
2024/03/28 13:29:26;;;;;;;5.07;2.10;;;;;;;;;;5086813;28;20271;-72
2024/03/28 13:31:52;;;;;;;4.20;2.13;;;;;;;;;;5085314;28;20204;-72
2024/03/28 13:34:17;;;;;;;6.05;2.53;;;;;;;;;;5088041;28;20183;-73
2024/03/28 13:36:43;;;;;;;3.17;1.90;;;;;;;;;;5087832;28;20231;-72
2024/03/28 13:39:09;;;;;;;5.00;1.88;;;;;;;;;;5083184;28;20207;-72
2024/03/28 13:41:34;;;;;;;6.75;1.77;;;;;;;;;;5085852;28;20184;-73
2024/03/28 13:44:00;;;;;;;4.78;1.58;;;;;;;;;;5085830;28;20191;-73
2024/03/28 13:46:26;;;;;;;4.22;1.63;;;;;;;;;;5083550;28;20226;-72
2024/03/28 13:48:51;;;;;;;5.75;1.60;;;;;;;;;;5084167;28;20184;-72
2024/03/28 13:51:17;;;;;;;4.10;1.92;;;;;;;;;;5086496;28;20603;-73
2024/03/28 13:53:42;;;;;;;7.95;1.80;;;;;;;;;;5086539;28;20188;-72
2024/03/28 13:56:07;;;;;;;3.90;1.50;;;;;;;;;;5088223;28;20191;-72
2024/03/28 13:58:33;;;;;;;4.35;1.70;;;;;;;;;;5083392;28;21197;-73
2024/03/28 14:01:02;;;;;;;3.65;1.30;;;;;;;;;;5087122;28;20243;-72
2024/03/28 14:03:28;;;;;;;2.55;1.58;;;;;;;;;;5084144;28;20232;-72
2024/03/28 14:06:03;;;;;;;3.92;1.75;;;;;;;;;;5085892;28;20698;-72
2024/03/28 14:08:29;;;;;;;3.47;1.63;;;;;;;;;;5084943;28;20595;-72
2024/03/28 14:10:55;;;;;;;6.45;2.10;;;;;;;;;;5084958;28;20353;-73
2024/03/28 14:13:20;;;;;;;5.22;2.05;;;;;;;;;;5086720;28;20314;-72
2024/03/28 14:15:46;;;;;;;4.60;1.80;;;;;;;;;;5085892;28;20600;-73
2024/03/28 14:18:12;;;;;;;5.22;1.77;;;;;;;;;;5085037;28;20212;-72
2024/03/28 14:20:41;;;;;;;3.42;1.88;;;;;;;;;;5085666;28;20184;-73
2024/03/28 14:23:07;;;;;;;5.78;2.30;;;;;;;;;;5083610;28;20188;-73
2024/03/28 14:25:33;;;;;;;4.50;2.42;;;;;;;;;;5082721;28;20200;-72
2024/03/28 14:27:59;;;;;;;3.20;1.98;;;;;;;;;;5083892;28;20204;-72
2024/03/28 14:30:25;;;;;;;5.43;1.92;;;;;;;;;;5084868;28;20255;-72
2024/03/28 14:32:51;;;;;;;5.13;2.10;;;;;;;;;;5086379;28;20258;-72
2024/03/28 14:35:17;;;;;;;4.72;1.83;;;;;;;;;;5084867;28;20202;-72